Time;durP1;ratioP1;P1;durP2;ratioP2;P2;SDS_P1;SDS_P2;PMS_P1;PMS_P2;Temp;Humidity;BMP_temperature;BMP_pressure;BME280_temperature;BME280_humidity;BME280_pressure;Samples;Min_cycle;Max_cycle;Signal;HPM_P1;HPM_P2
2021/05/29 00:01:11;;;;;;;4.75;2.88;;;;;;;;;;4969840;28;20084;-79
2021/05/29 00:03:38;;;;;;;3.90;2.90;;;;;;;;;;4976684;28;20057;-79
2021/05/29 00:06:04;;;;;;;6.32;3.50;;;;;;;;;;4991834;28;20049;-79
2021/05/29 00:08:31;;;;;;;8.00;3.00;;;;;;;;;;5004462;28;20465;-79
2021/05/29 00:10:58;;;;;;;5.32;2.83;;;;;;;;;;4989006;28;20058;-78
2021/05/29 00:13:25;;;;;;;6.30;3.50;;;;;;;;;;4985380;28;20030;-78
2021/05/29 00:15:52;;;;;;;5.20;3.10;;;;;;;;;;4988095;28;20033;-79
2021/05/29 00:18:19;;;;;;;5.05;3.00;;;;;;;;;;4980143;28;20143;-79
2021/05/29 00:20:46;;;;;;;5.15;2.92;;;;;;;;;;4980504;28;20065;-80
2021/05/29 00:23:13;;;;;;;3.83;2.70;;;;;;;;;;4978824;28;20843;-79
2021/05/29 00:25:39;;;;;;;4.75;3.00;;;;;;;;;;4991226;28;20469;-79
2021/05/29 00:28:06;;;;;;;4.03;2.65;;;;;;;;;;5009125;28;20077;-79
2021/05/29 00:30:32;;;;;;;5.55;3.30;;;;;;;;;;4989295;28;20104;-79
2021/05/29 00:32:59;;;;;;;3.45;2.67;;;;;;;;;;5012463;28;20091;-79
2021/05/29 00:35:25;;;;;;;6.07;3.20;;;;;;;;;;5017275;28;20112;-79
2021/05/29 00:37:52;;;;;;;4.25;2.63;;;;;;;;;;4969116;28;20041;-78
2021/05/29 00:40:19;;;;;;;5.88;2.78;;;;;;;;;;4973011;28;20111;-78
2021/05/29 00:42:45;;;;;;;5.45;3.40;;;;;;;;;;5019630;28;20060;-78
2021/05/29 00:45:12;;;;;;;6.05;3.38;;;;;;;;;;4996083;28;20445;-78
2021/05/29 00:47:38;;;;;;;5.82;3.10;;;;;;;;;;5012682;28;20548;-78
2021/05/29 00:50:07;;;;;;;5.53;3.08;;;;;;;;;;5009668;28;20061;-78
2021/05/29 00:52:34;;;;;;;4.68;2.50;;;;;;;;;;4983719;28;20065;-77
2021/05/29 00:55:02;;;;;;;5.03;3.17;;;;;;;;;;4991386;28;20070;-78
2021/05/29 00:57:28;;;;;;;5.22;3.17;;;;;;;;;;4992728;28;20115;-78
2021/05/29 00:59:55;;;;;;;4.47;2.85;;;;;;;;;;4981043;28;20089;-79
2021/05/29 01:02:21;;;;;;;4.43;2.92;;;;;;;;;;5016175;28;20057;-79
2021/05/29 01:04:48;;;;;;;6.57;2.88;;;;;;;;;;4979702;28;20058;-79
2021/05/29 01:07:15;;;;;;;4.75;3.15;;;;;;;;;;4973857;28;20147;-78
2021/05/29 01:09:42;;;;;;;5.97;3.08;;;;;;;;;;4977668;28;20147;-79
2021/05/29 01:12:10;;;;;;;6.13;3.10;;;;;;;;;;4986981;28;20074;-79
2021/05/29 01:14:42;;;;;;;5.88;3.15;;;;;;;;;;4996634;28;20045;-79
2021/05/29 01:17:08;;;;;;;4.72;3.00;;;;;;;;;;4987004;28;20417;-79
2021/05/29 01:19:35;;;;;;;5.55;3.20;;;;;;;;;;5017555;28;20559;-79
2021/05/29 01:22:06;;;;;;;5.25;3.22;;;;;;;;;;4996567;28;20061;-79
2021/05/29 01:24:32;;;;;;;5.13;2.63;;;;;;;;;;4971972;28;20107;-79
2021/05/29 01:26:58;;;;;;;4.32;2.97;;;;;;;;;;4992134;28;20054;-78
2021/05/29 01:29:25;;;;;;;3.90;3.08;;;;;;;;;;4977155;28;20061;-79
2021/05/29 01:32:00;;;;;;;5.57;3.10;;;;;;;;;;4971517;28;20068;-78
2021/05/29 01:34:29;;;;;;;5.60;3.10;;;;;;;;;;4975697;28;20513;-79
2021/05/29 01:36:55;;;;;;;5.03;2.90;;;;;;;;;;4992843;28;20752;-78
2021/05/29 01:39:22;;;;;;;6.18;3.08;;;;;;;;;;4984854;28;20069;-78
2021/05/29 01:41:48;;;;;;;5.60;3.00;;;;;;;;;;4980079;28;20065;-79
2021/05/29 01:44:15;;;;;;;4.93;3.05;;;;;;;;;;4975327;28;20121;-78
2021/05/29 01:46:41;;;;;;;6.05;3.20;;;;;;;;;;4999659;28;20140;-78
2021/05/29 01:49:08;;;;;;;6.78;3.35;;;;;;;;;;4982090;28;20062;-78
2021/05/29 01:51:34;;;;;;;4.85;3.03;;;;;;;;;;4988323;28;20042;-78
2021/05/29 01:54:00;;;;;;;5.60;2.75;;;;;;;;;;4976387;28;20058;-78
2021/05/29 01:56:27;;;;;;;5.57;3.42;;;;;;;;;;4969331;28;20193;-78
2021/05/29 01:58:53;;;;;;;7.65;3.08;;;;;;;;;;4988329;28;20073;-78
2021/05/29 02:01:20;;;;;;;5.43;3.00;;;;;;;;;;4966969;28;20061;-78
2021/05/29 02:03:46;;;;;;;3.70;2.97;;;;;;;;;;4967223;28;20069;-78
2021/05/29 02:06:15;;;;;;;3.85;3.13;;;;;;;;;;4952928;28;20046;-78
2021/05/29 02:08:42;;;;;;;6.40;3.50;;;;;;;;;;4978139;28;20100;-79
2021/05/29 02:11:09;;;;;;;4.45;2.78;;;;;;;;;;4982210;28;20068;-78
2021/05/29 02:13:37;;;;;;;5.72;3.00;;;;;;;;;;4973774;28;20105;-79
2021/05/29 02:16:05;;;;;;;4.60;2.92;;;;;;;;;;4964701;28;20487;-79
2021/05/29 02:18:31;;;;;;;5.60;2.75;;;;;;;;;;4987542;28;20411;-78
2021/05/29 02:20:59;;;;;;;5.70;3.40;;;;;;;;;;4965930;28;20057;-79
2021/05/29 02:23:27;;;;;;;5.10;2.75;;;;;;;;;;4947164;28;20045;-79
2021/05/29 02:25:55;;;;;;;4.28;2.67;;;;;;;;;;4980656;28;20471;-79
2021/05/29 02:28:22;;;;;;;4.05;2.70;;;;;;;;;;5008763;28;20069;-79
2021/05/29 02:30:49;;;;;;;5.85;2.88;;;;;;;;;;5035637;28;20065;-79
2021/05/29 02:33:16;;;;;;;4.32;2.75;;;;;;;;;;5006278;28;20077;-79
2021/05/29 02:35:43;;;;;;;3.90;2.63;;;;;;;;;;5012854;28;20060;-78
2021/05/29 02:38:09;;;;;;;6.70;3.10;;;;;;;;;;5032546;28;20592;-78
2021/05/29 02:40:36;;;;;;;5.30;3.00;;;;;;;;;;5016621;28;20050;-78
2021/05/29 02:43:02;;;;;;;4.95;2.90;;;;;;;;;;4995888;28;20065;-78
2021/05/29 02:45:29;;;;;;;4.47;3.13;;;;;;;;;;5024798;28;20414;-78
2021/05/29 02:47:56;;;;;;;5.25;2.80;;;;;;;;;;5011575;28;20404;-78
2021/05/29 02:50:23;;;;;;;7.38;3.33;;;;;;;;;;5007419;28;20084;-78
2021/05/29 02:52:49;;;;;;;4.90;2.90;;;;;;;;;;5010413;28;20120;-78
2021/05/29 02:55:22;;;;;;;5.00;3.00;;;;;;;;;;5034385;28;20522;-78
2021/05/29 02:57:49;;;;;;;4.60;3.08;;;;;;;;;;5026088;28;20066;-78
2021/05/29 03:00:16;;;;;;;5.03;2.85;;;;;;;;;;5012168;28;20139;-79
2021/05/29 03:02:42;;;;;;;5.03;2.80;;;;;;;;;;5008671;28;20061;-78
2021/05/29 03:05:09;;;;;;;6.70;3.33;;;;;;;;;;5003662;28;20057;-78
2021/05/29 03:07:36;;;;;;;8.52;3.35;;;;;;;;;;5028909;28;20134;-78
2021/05/29 03:10:03;;;;;;;5.65;2.97;;;;;;;;;;5003791;28;20065;-79
2021/05/29 03:12:30;;;;;;;4.05;2.95;;;;;;;;;;5015067;28;20049;-78
2021/05/29 03:14:56;;;;;;;5.15;2.70;;;;;;;;;;4996393;28;20572;-78
2021/05/29 03:17:23;;;;;;;4.88;2.85;;;;;;;;;;5013515;28;20077;-77
2021/05/29 03:19:49;;;;;;;4.07;2.60;;;;;;;;;;5013771;28;20114;-78
2021/05/29 03:22:16;;;;;;;4.68;2.70;;;;;;;;;;5024014;28;20466;-79
2021/05/29 03:24:42;;;;;;;6.85;3.00;;;;;;;;;;4989804;28;20033;-79
2021/05/29 03:27:09;;;;;;;3.70;2.45;;;;;;;;;;5025891;28;20540;-78
2021/05/29 03:29:35;;;;;;;4.10;2.63;;;;;;;;;;5038839;28;20105;-78
2021/05/29 03:32:02;;;;;;;4.22;2.50;;;;;;;;;;5018789;28;20064;-78
2021/05/29 03:34:28;;;;;;;7.18;3.10;;;;;;;;;;5025734;28;20067;-78
2021/05/29 03:36:55;;;;;;;5.97;3.15;;;;;;;;;;5009674;28;20449;-78
2021/05/29 03:39:22;;;;;;;3.90;2.65;;;;;;;;;;5009228;28;20053;-77
2021/05/29 03:41:48;;;;;;;5.25;2.60;;;;;;;;;;4997382;28;20108;-77
2021/05/29 03:44:15;;;;;;;5.32;2.75;;;;;;;;;;5012484;28;20061;-78
2021/05/29 03:46:41;;;;;;;6.82;2.70;;;;;;;;;;4988211;28;20050;-79
2021/05/29 03:49:08;;;;;;;6.45;3.20;;;;;;;;;;5016939;28;20072;-79
2021/05/29 03:51:34;;;;;;;3.90;2.90;;;;;;;;;;5003835;28;20061;-78
2021/05/29 03:54:00;;;;;;;6.88;3.00;;;;;;;;;;5019282;28;20053;-78
2021/05/29 03:56:27;;;;;;;4.28;2.75;;;;;;;;;;5012469;28;20197;-78
2021/05/29 03:58:53;;;;;;;5.97;3.17;;;;;;;;;;5017283;28;20049;-78
2021/05/29 04:01:20;;;;;;;5.57;3.00;;;;;;;;;;5010303;28;20760;-78
2021/05/29 04:03:46;;;;;;;4.82;3.08;;;;;;;;;;5022794;28;20563;-78
2021/05/29 04:06:13;;;;;;;5.35;2.88;;;;;;;;;;4992123;28;20445;-78
2021/05/29 04:08:39;;;;;;;5.20;2.78;;;;;;;;;;5016047;28;20066;-78
2021/05/29 04:11:06;;;;;;;4.47;2.50;;;;;;;;;;5010531;28;20045;-78
2021/05/29 04:13:33;;;;;;;3.97;2.58;;;;;;;;;;5023225;28;20039;-78
2021/05/29 04:16:00;;;;;;;5.10;2.80;;;;;;;;;;5037214;28;20125;-78
2021/05/29 04:18:26;;;;;;;5.18;2.90;;;;;;;;;;5010782;28;20502;-78
2021/05/29 04:20:53;;;;;;;4.93;2.85;;;;;;;;;;5017560;28;20076;-78
2021/05/29 04:23:19;;;;;;;5.63;2.92;;;;;;;;;;4994562;28;20057;-79
2021/05/29 04:25:46;;;;;;;5.82;3.10;;;;;;;;;;4994860;28;20103;-79
2021/05/29 04:28:13;;;;;;;5.65;2.83;;;;;;;;;;4989234;28;20076;-79
2021/05/29 04:30:39;;;;;;;5.32;2.60;;;;;;;;;;5011604;28;20076;-77
2021/05/29 04:33:06;;;;;;;6.45;2.90;;;;;;;;;;5030994;28;20065;-78
2021/05/29 04:35:32;;;;;;;5.70;2.67;;;;;;;;;;5016054;28;20060;-78
2021/05/29 04:37:59;;;;;;;4.80;2.70;;;;;;;;;;4999983;28;20068;-78
2021/05/29 04:40:26;;;;;;;3.63;2.53;;;;;;;;;;4990066;28;20068;-78
2021/05/29 04:42:53;;;;;;;4.75;2.85;;;;;;;;;;5035984;28;20115;-79
2021/05/29 04:45:20;;;;;;;3.90;2.58;;;;;;;;;;5023058;28;20060;-79
2021/05/29 04:47:47;;;;;;;6.20;2.50;;;;;;;;;;5032502;28;20567;-79
2021/05/29 04:50:14;;;;;;;4.25;2.67;;;;;;;;;;5015238;28;20064;-79
2021/05/29 04:52:41;;;;;;;4.78;2.55;;;;;;;;;;5002006;28;20038;-79
2021/05/29 04:55:09;;;;;;;5.07;2.90;;;;;;;;;;5013639;28;20774;-79
2021/05/29 04:57:35;;;;;;;4.82;3.13;;;;;;;;;;5000487;28;20060;-79
2021/05/29 05:00:05;;;;;;;3.63;2.50;;;;;;;;;;5013305;28;20057;-79
2021/05/29 05:02:32;;;;;;;4.03;2.50;;;;;;;;;;4995793;28;20056;-79
2021/05/29 05:04:58;;;;;;;4.88;2.83;;;;;;;;;;5012906;28;20049;-79
2021/05/29 05:07:25;;;;;;;5.63;2.67;;;;;;;;;;5024414;28;20428;-79
2021/05/29 05:09:51;;;;;;;4.93;2.90;;;;;;;;;;5015644;28;20120;-78
2021/05/29 05:12:18;;;;;;;5.05;2.95;;;;;;;;;;5032116;28;20068;-78
2021/05/29 05:14:45;;;;;;;6.90;3.05;;;;;;;;;;4989587;28;20154;-78
2021/05/29 05:17:12;;;;;;;4.32;2.42;;;;;;;;;;5021160;28;20034;-78
2021/05/29 05:19:39;;;;;;;4.82;2.75;;;;;;;;;;5029057;28;20081;-79
2021/05/29 05:22:05;;;;;;;5.10;2.60;;;;;;;;;;5027275;28;20063;-78
2021/05/29 05:24:32;;;;;;;5.10;2.60;;;;;;;;;;5008255;28;20572;-78
2021/05/29 05:26:58;;;;;;;4.50;2.72;;;;;;;;;;5015842;28;20057;-78
2021/05/29 05:29:25;;;;;;;5.28;2.47;;;;;;;;;;4993721;28;20065;-78
2021/05/29 05:31:51;;;;;;;4.53;3.00;;;;;;;;;;5027742;28;20519;-79
2021/05/29 05:34:18;;;;;;;4.15;2.60;;;;;;;;;;5023554;28;20077;-78
2021/05/29 05:36:44;;;;;;;3.60;2.60;;;;;;;;;;5016938;28;20128;-78
2021/05/29 05:39:15;;;;;;;4.72;2.75;;;;;;;;;;5016706;28;20064;-78
2021/05/29 05:41:42;;;;;;;4.90;2.80;;;;;;;;;;5017660;28;20727;-78
2021/05/29 05:44:08;;;;;;;4.32;2.33;;;;;;;;;;4996246;28;20053;-79
2021/05/29 05:46:35;;;;;;;3.58;2.60;;;;;;;;;;5010705;28;20529;-79
2021/05/29 05:49:02;;;;;;;5.38;2.70;;;;;;;;;;5008705;28;20761;-78
2021/05/29 05:51:30;;;;;;;4.03;2.40;;;;;;;;;;5012450;28;20490;-78
2021/05/29 05:53:57;;;;;;;4.10;2.75;;;;;;;;;;5012319;28;20151;-78
2021/05/29 05:56:26;;;;;;;7.30;2.90;;;;;;;;;;5010301;28;20065;-78
2021/05/29 05:58:57;;;;;;;3.90;2.30;;;;;;;;;;4998507;28;20131;-77
2021/05/29 06:01:24;;;;;;;3.75;2.35;;;;;;;;;;5010088;28;20065;-78
2021/05/29 06:03:50;;;;;;;4.47;2.13;;;;;;;;;;4999561;28;20088;-77
2021/05/29 06:06:17;;;;;;;6.63;2.08;;;;;;;;;;5002678;28;20113;-78
2021/05/29 06:08:44;;;;;;;4.00;2.38;;;;;;;;;;5015596;28;20096;-78
2021/05/29 06:11:10;;;;;;;3.22;2.22;;;;;;;;;;5012725;28;20058;-78
2021/05/29 06:21:35;;;;;;;4.60;2.13;;;;;;;;;;4999679;28;20262;-74
2021/05/29 06:24:02;;;;;;;9.57;2.58;;;;;;;;;;4985681;28;20061;-74
2021/05/29 06:26:28;;;;;;;3.45;2.22;;;;;;;;;;5013782;28;20091;-75
2021/05/29 06:28:55;;;;;;;3.63;2.28;;;;;;;;;;5001017;28;20104;-74
2021/05/29 06:31:21;;;;;;;3.60;2.10;;;;;;;;;;5004010;28;20066;-73
2021/05/29 06:33:48;;;;;;;4.45;2.20;;;;;;;;;;5015865;28;20061;-74
2021/05/29 06:36:14;;;;;;;4.53;2.13;;;;;;;;;;5021511;28;20065;-75
2021/05/29 06:38:41;;;;;;;7.13;2.80;;;;;;;;;;5025452;28;20044;-74
2021/05/29 06:41:07;;;;;;;4.90;2.38;;;;;;;;;;5008242;28;20061;-77
2021/05/29 06:43:34;;;;;;;4.03;1.90;;;;;;;;;;5032553;28;20466;-74
2021/05/29 06:46:01;;;;;;;4.65;2.38;;;;;;;;;;4989977;28;20099;-75
2021/05/29 06:48:27;;;;;;;3.97;2.17;;;;;;;;;;5028650;28;20065;-75
2021/05/29 06:50:54;;;;;;;4.20;2.03;;;;;;;;;;5031721;28;20442;-74
2021/05/29 06:53:54;;;;;;;3.88;2.30;;;;;;;;;;5024528;28;20068;-75
2021/05/29 06:58:59;;;;;;;4.45;2.15;;;;;;;;;;5029486;28;20099;-79
2021/05/29 07:01:26;;;;;;;3.25;1.98;;;;;;;;;;5013215;28;20091;-79
2021/05/29 07:03:53;;;;;;;5.25;2.33;;;;;;;;;;5032386;28;20037;-80
2021/05/29 07:06:20;;;;;;;4.18;2.30;;;;;;;;;;5022738;28;20069;-80
2021/05/29 07:08:46;;;;;;;5.20;2.00;;;;;;;;;;5032257;28;20496;-84
2021/05/29 07:11:13;;;;;;;12.95;2.50;;;;;;;;;;5029764;28;20399;-80
2021/05/29 07:13:39;;;;;;;4.90;2.22;;;;;;;;;;5021236;28;20064;-83
2021/05/29 07:16:06;;;;;;;5.00;2.30;;;;;;;;;;5020493;28;20044;-81
2021/05/29 07:18:35;;;;;;;3.65;2.10;;;;;;;;;;5021398;28;21714;-82
2021/05/29 07:21:02;;;;;;;4.72;2.30;;;;;;;;;;5023095;28;20097;-80
2021/05/29 07:23:29;;;;;;;6.32;2.70;;;;;;;;;;5016568;28;20069;-80
2021/05/29 07:25:56;;;;;;;7.75;2.90;;;;;;;;;;5027387;28;20103;-80
2021/05/29 07:28:22;;;;;;;8.38;3.17;;;;;;;;;;5010085;28;20372;-79
2021/05/29 07:30:49;;;;;;;8.07;3.03;;;;;;;;;;5018629;28;20104;-79
2021/05/29 07:33:16;;;;;;;6.60;2.72;;;;;;;;;;4995998;28;20591;-78
2021/05/29 07:35:43;;;;;;;7.38;3.25;;;;;;;;;;4992394;28;20073;-79
2021/05/29 07:38:10;;;;;;;5.95;3.15;;;;;;;;;;5009258;28;20056;-80
2021/05/29 07:40:37;;;;;;;8.70;3.05;;;;;;;;;;4997279;28;20100;-80
2021/05/29 07:43:04;;;;;;;6.82;2.80;;;;;;;;;;5007314;28;20057;-81
2021/05/29 07:45:31;;;;;;;7.18;3.00;;;;;;;;;;5010120;28;20080;-81
2021/05/29 07:47:58;;;;;;;8.85;2.65;;;;;;;;;;5008076;28;20062;-81
2021/05/29 07:50:24;;;;;;;8.32;3.10;;;;;;;;;;5005765;28;20065;-78
2021/05/29 07:52:51;;;;;;;9.88;3.08;;;;;;;;;;5002833;28;20068;-78
2021/05/29 07:55:18;;;;;;;4.15;2.33;;;;;;;;;;5006053;28;20074;-78
2021/05/29 07:57:44;;;;;;;5.97;3.35;;;;;;;;;;5007685;28;20046;-76
2021/05/29 08:00:12;;;;;;;7.03;3.10;;;;;;;;;;5006037;28;20053;-77
2021/05/29 08:02:40;;;;;;;6.03;2.60;;;;;;;;;;4988627;28;20060;-78
2021/05/29 08:05:15;;;;;;;7.53;2.90;;;;;;;;;;5002069;28;20057;-78
2021/05/29 08:07:41;;;;;;;6.35;2.92;;;;;;;;;;5003378;28;20040;-78
2021/05/29 08:10:08;;;;;;;6.90;3.15;;;;;;;;;;5002028;28;20595;-79
2021/05/29 08:12:34;;;;;;;4.47;2.60;;;;;;;;;;5004735;28;20049;-79
2021/05/29 08:15:01;;;;;;;6.10;2.88;;;;;;;;;;5009823;28;20686;-78
2021/05/29 08:17:27;;;;;;;5.18;2.78;;;;;;;;;;5006659;28;20057;-78
2021/05/29 08:19:54;;;;;;;6.07;3.05;;;;;;;;;;5005695;28;20065;-78
2021/05/29 08:22:20;;;;;;;6.95;2.80;;;;;;;;;;5016638;28;20096;-78
2021/05/29 08:24:47;;;;;;;6.47;2.60;;;;;;;;;;4995890;28;20065;-77
2021/05/29 08:27:14;;;;;;;6.50;2.70;;;;;;;;;;5003847;28;20132;-78
2021/05/29 08:29:41;;;;;;;4.47;2.72;;;;;;;;;;5005950;28;20057;-77
2021/05/29 08:32:07;;;;;;;7.68;2.72;;;;;;;;;;5007897;28;20462;-75
2021/05/29 08:34:34;;;;;;;5.75;3.10;;;;;;;;;;5033121;28;20069;-75
2021/05/29 08:37:00;;;;;;;5.00;2.40;;;;;;;;;;5033026;28;20064;-75
2021/05/29 08:39:27;;;;;;;9.02;2.97;;;;;;;;;;5022731;28;20073;-75
2021/05/29 08:41:54;;;;;;;7.28;2.85;;;;;;;;;;5025780;28;20076;-75
2021/05/29 08:44:20;;;;;;;5.18;2.55;;;;;;;;;;5012284;28;20500;-76
2021/05/29 08:46:49;;;;;;;7.13;2.50;;;;;;;;;;5029662;28;20053;-76
2021/05/29 08:49:15;;;;;;;5.18;2.53;;;;;;;;;;5026372;28;20095;-75
2021/05/29 08:51:42;;;;;;;5.47;2.50;;;;;;;;;;5012035;28;20068;-75
2021/05/29 08:54:08;;;;;;;6.13;2.70;;;;;;;;;;5028532;28;20061;-75
2021/05/29 08:56:35;;;;;;;3.40;2.53;;;;;;;;;;5014881;28;20065;-75
2021/05/29 08:59:02;;;;;;;7.72;2.90;;;;;;;;;;5022998;28;20048;-75
2021/05/29 09:01:29;;;;;;;5.82;2.30;;;;;;;;;;5033681;28;20068;-75
2021/05/29 09:04:00;;;;;;;8.00;2.55;;;;;;;;;;5037517;28;20065;-75
2021/05/29 09:06:26;;;;;;;6.20;2.55;;;;;;;;;;5012563;28;20114;-76
2021/05/29 09:09:07;;;;;;;4.82;2.70;;;;;;;;;;5032891;28;20056;-76
2021/05/29 09:11:49;;;;;;;6.05;2.42;;;;;;;;;;5023501;28;20505;-76
2021/05/29 09:14:36;;;;;;;6.20;2.55;;;;;;;;;;5011850;28;20719;-76
2021/05/29 09:17:02;;;;;;;5.78;2.40;;;;;;;;;;5007380;28;20057;-76
2021/05/29 09:19:29;;;;;;;4.82;2.42;;;;;;;;;;5015856;28;20116;-76
2021/05/29 09:21:56;;;;;;;5.65;2.47;;;;;;;;;;5015091;28;20489;-76
2021/05/29 09:24:22;;;;;;;5.07;2.60;;;;;;;;;;5032644;28;20566;-76
2021/05/29 09:26:50;;;;;;;5.70;2.55;;;;;;;;;;5012605;28;20053;-76
2021/05/29 09:29:18;;;;;;;7.50;2.80;;;;;;;;;;5006429;28;20143;-76
2021/05/29 09:31:59;;;;;;;3.95;2.70;;;;;;;;;;5026930;28;20069;-76
2021/05/29 09:34:33;;;;;;;5.63;2.27;;;;;;;;;;4995105;28;20124;-76
2021/05/29 09:37:03;;;;;;;8.38;2.78;;;;;;;;;;4988367;28;20065;-76
2021/05/29 09:39:31;;;;;;;7.30;2.53;;;;;;;;;;4994364;28;20049;-76
2021/05/29 09:42:01;;;;;;;4.68;2.60;;;;;;;;;;4988952;28;20062;-76
2021/05/29 09:44:28;;;;;;;5.97;2.30;;;;;;;;;;4988765;28;20062;-76
2021/05/29 09:46:56;;;;;;;5.97;2.53;;;;;;;;;;4989633;28;20058;-76
2021/05/29 09:49:41;;;;;;;4.57;2.40;;;;;;;;;;4986932;28;20073;-76
2021/05/29 09:52:26;;;;;;;3.95;2.40;;;;;;;;;;4989610;28;20066;-76
2021/05/29 09:54:53;;;;;;;5.55;2.38;;;;;;;;;;4988828;28;20180;-76
2021/05/29 09:57:20;;;;;;;5.00;2.40;;;;;;;;;;4985896;28;20546;-76
2021/05/29 09:59:56;;;;;;;5.88;2.58;;;;;;;;;;4975461;28;20053;-76
2021/05/29 10:02:23;;;;;;;4.65;2.40;;;;;;;;;;4986792;28;20091;-76
2021/05/29 10:04:54;;;;;;;4.50;2.35;;;;;;;;;;4987972;28;20057;-76
2021/05/29 10:07:21;;;;;;;;;;;;;;;;;;4986102;28;20571;-76
2021/05/29 10:09:47;;;;;;;5.40;2.30;;;;;;;;;;4987452;28;19953;-76
2021/05/29 10:12:14;;;;;;;4.18;2.40;;;;;;;;;;4970672;28;20058;-76
2021/05/29 10:14:41;;;;;;;4.10;2.30;;;;;;;;;;4987283;28;20038;-76
2021/05/29 10:17:09;;;;;;;3.85;2.20;;;;;;;;;;4989246;28;20563;-76
2021/05/29 10:19:36;;;;;;;7.47;2.50;;;;;;;;;;5002740;28;20038;-75
2021/05/29 10:22:04;;;;;;;3.90;2.30;;;;;;;;;;4978508;28;20058;-76
2021/05/29 10:24:30;;;;;;;3.55;2.15;;;;;;;;;;4980287;28;20054;-75
2021/05/29 10:26:57;;;;;;;3.88;2.28;;;;;;;;;;5004973;28;20026;-79
2021/05/29 10:29:24;;;;;;;5.05;2.33;;;;;;;;;;4973422;28;20074;-79
2021/05/29 10:31:51;;;;;;;6.38;2.28;;;;;;;;;;4984285;28;20776;-79
2021/05/29 10:34:18;;;;;;;7.63;3.30;;;;;;;;;;4992644;28;20081;-79
2021/05/29 10:36:47;;;;;;;8.82;3.88;;;;;;;;;;4987667;28;20054;-79
2021/05/29 10:39:22;;;;;;;9.23;6.00;;;;;;;;;;4990492;28;20068;-79
2021/05/29 10:41:52;;;;;;;28.13;14.02;;;;;;;;;;4985496;28;20485;-78
2021/05/29 10:44:28;;;;;;;25.23;19.05;;;;;;;;;;5000624;28;20063;-78
2021/05/29 10:47:02;;;;;;;26.75;19.80;;;;;;;;;;4982959;28;20046;-79
2021/05/29 10:49:59;;;;;;;21.17;17.05;;;;;;;;;;4979657;28;20076;-79
2021/05/29 10:52:32;;;;;;;21.63;16.60;;;;;;;;;;4971990;28;20120;-79
2021/05/29 10:55:14;;;;;;;18.33;15.57;;;;;;;;;;4992879;28;20062;-79
2021/05/29 10:57:58;;;;;;;20.55;16.10;;;;;;;;;;4972932;28;20128;-79
2021/05/29 11:00:37;;;;;;;17.70;14.35;;;;;;;;;;4967011;28;20058;-78
2021/05/29 11:05:40;;;;;;;18.58;13.88;;;;;;;;;;5963172;23;21275;-80
2021/05/29 11:08:46;;;;;;;18.05;13.77;;;;;;;;;;4996515;28;20057;-82
2021/05/29 11:11:31;;;;;;;17.10;12.55;;;;;;;;;;5004027;28;20503;-82
2021/05/29 11:14:05;;;;;;;16.02;12.23;;;;;;;;;;5002697;28;20035;-82
2021/05/29 11:16:56;;;;;;;14.75;12.05;;;;;;;;;;5000329;28;20116;-82
2021/05/29 11:19:27;;;;;;;15.73;10.95;;;;;;;;;;4999455;28;20115;-82
2021/05/29 11:22:10;;;;;;;14.33;10.77;;;;;;;;;;4997653;28;20217;-81
2021/05/29 11:24:41;;;;;;;13.20;10.57;;;;;;;;;;5004271;28;20120;-81
2021/05/29 11:27:09;;;;;;;13.88;10.55;;;;;;;;;;5001490;28;20066;-81
2021/05/29 11:30:01;;;;;;;13.77;10.13;;;;;;;;;;5003295;28;20781;-81
2021/05/29 11:32:48;;;;;;;18.60;9.10;;;;;;;;;;4996678;28;20081;-81
2021/05/29 11:35:26;;;;;;;14.25;9.85;;;;;;;;;;5002412;28;20546;-81
2021/05/29 11:38:00;;;;;;;12.00;9.02;;;;;;;;;;4996570;28;20566;-81
2021/05/29 11:40:59;;;;;;;12.10;8.70;;;;;;;;;;4994406;28;20069;-82
2021/05/29 11:43:32;;;;;;;12.05;8.63;;;;;;;;;;4970320;28;20077;-82
2021/05/29 11:45:59;;;;;;;11.75;8.40;;;;;;;;;;5003538;28;20073;-82
2021/05/29 11:48:36;;;;;;;10.48;8.43;;;;;;;;;;5001528;28;20073;-81
2021/05/29 11:51:15;;;;;;;10.30;8.20;;;;;;;;;;5004786;28;20085;-81
2021/05/29 11:53:46;;;;;;;10.85;9.00;;;;;;;;;;5003883;28;20070;-81
2021/05/29 11:56:36;;;;;;;9.43;7.82;;;;;;;;;;5005138;28;20517;-81
2021/05/29 11:59:05;;;;;;;9.55;7.75;;;;;;;;;;4992365;28;20046;-80
2021/05/29 12:01:32;;;;;;;8.13;7.07;;;;;;;;;;5002932;28;20096;-81
2021/05/29 12:04:00;;;;;;;9.80;7.70;;;;;;;;;;5001016;28;20082;-81
2021/05/29 12:06:35;;;;;;;8.98;6.63;;;;;;;;;;5012920;28;20131;-81
2021/05/29 12:09:04;;;;;;;10.10;7.18;;;;;;;;;;5026054;28;20084;-82
2021/05/29 12:11:32;;;;;;;10.57;7.78;;;;;;;;;;5017629;28;20077;-83
2021/05/29 12:14:05;;;;;;;9.93;7.13;;;;;;;;;;5021873;28;20119;-82
2021/05/29 12:16:33;;;;;;;9.10;6.65;;;;;;;;;;5025794;28;20516;-86
2021/05/29 12:19:00;;;;;;;9.77;6.43;;;;;;;;;;5027354;28;20069;-81
2021/05/29 12:21:47;;;;;;;9.95;6.50;;;;;;;;;;5021842;28;20147;-82
2021/05/29 12:24:13;;;;;;;12.05;6.50;;;;;;;;;;5040207;28;20069;-82
2021/05/29 12:26:40;;;;;;;10.85;7.07;;;;;;;;;;5027350;28;20092;-83
2021/05/29 12:29:07;;;;;;;10.13;5.88;;;;;;;;;;5030643;28;20081;-82
2021/05/29 12:31:44;;;;;;;9.43;6.40;;;;;;;;;;5040075;28;20098;-83
2021/05/29 12:34:10;;;;;;;8.93;6.00;;;;;;;;;;5030119;28;20457;-83
2021/05/29 12:36:52;;;;;;;11.90;6.45;;;;;;;;;;5030046;28;20065;-83
2021/05/29 12:39:19;;;;;;;10.13;6.35;;;;;;;;;;5024467;28;20516;-84
2021/05/29 12:41:45;;;;;;;11.63;6.18;;;;;;;;;;5030891;28;20065;-83
2021/05/29 12:44:12;;;;;;;10.48;6.07;;;;;;;;;;5024213;28;20069;-84
2021/05/29 12:46:39;;;;;;;10.05;6.38;;;;;;;;;;5029057;28;20618;-84
2021/05/29 12:49:12;;;;;;;8.02;5.55;;;;;;;;;;5030324;28;20459;-83
2021/05/29 12:51:49;;;;;;;10.05;6.13;;;;;;;;;;5022427;28;20221;-86
2021/05/29 12:54:16;;;;;;;8.30;4.93;;;;;;;;;;5028183;28;20718;-88
2021/05/29 12:56:55;;;;;;;9.68;3.88;;;;;;;;;;5027632;28;20783;-87
2021/05/29 12:59:23;;;;;;;7.47;4.82;;;;;;;;;;5039197;28;20448;-88
2021/05/29 13:07:35;;;;;;;8.35;4.25;;;;;;;;;;5042405;28;20123;-88
2021/05/29 13:10:19;;;;;;;5.38;3.72;;;;;;;;;;5055524;28;20522;-86
2021/05/29 13:13:00;;;;;;;8.52;4.18;;;;;;;;;;5038546;28;21859;-89
2021/05/29 13:15:26;;;;;;;8.75;4.35;;;;;;;;;;5032522;28;20103;-91
2021/05/29 13:18:07;;;;;;;5.97;4.38;;;;;;;;;;5026760;28;20073;-92
2021/05/29 13:20:35;;;;;;;7.00;4.32;;;;;;;;;;5026894;28;20068;-92
2021/05/29 13:23:01;;;;;;;10.57;5.22;;;;;;;;;;5020191;28;20073;-91
2021/05/29 13:25:37;;;;;;;8.45;5.38;;;;;;;;;;5018955;28;20096;-88
2021/05/29 13:28:07;;;;;;;10.32;5.50;;;;;;;;;;5026039;28;20053;-88
2021/05/29 13:30:34;;;;;;;7.07;4.10;;;;;;;;;;5028498;28;20133;-85
2021/05/29 13:33:00;;;;;;;4.72;3.55;;;;;;;;;;5022038;28;20073;-87
2021/05/29 13:35:29;;;;;;;6.68;3.95;;;;;;;;;;5034956;28;20492;-87
2021/05/29 13:37:55;;;;;;;7.63;4.07;;;;;;;;;;5028546;28;20073;-87
2021/05/29 13:40:22;;;;;;;5.25;3.65;;;;;;;;;;5026719;28;20136;-82
2021/05/29 13:42:48;;;;;;;7.05;3.80;;;;;;;;;;5027294;28;20080;-86
2021/05/29 13:45:17;;;;;;;4.68;3.40;;;;;;;;;;5027143;28;20077;-83
2021/05/29 13:47:45;;;;;;;5.38;3.42;;;;;;;;;;5025548;28;20033;-83
2021/05/29 13:50:12;;;;;;;5.10;3.60;;;;;;;;;;5031354;28;20073;-81
2021/05/29 13:52:38;;;;;;;6.70;3.60;;;;;;;;;;5029848;28;20107;-85
2021/05/29 13:55:05;;;;;;;6.13;3.75;;;;;;;;;;5032436;28;20057;-86
2021/05/29 13:57:31;;;;;;;5.30;3.28;;;;;;;;;;5029079;28;20037;-87
2021/05/29 13:59:58;;;;;;;6.65;3.53;;;;;;;;;;5031313;28;20111;-90
2021/05/29 14:02:25;;;;;;;5.13;3.35;;;;;;;;;;5026886;28;20069;-88
2021/05/29 14:04:51;;;;;;;5.43;3.75;;;;;;;;;;5030843;28;20150;-88
2021/05/29 14:07:19;;;;;;;5.05;3.10;;;;;;;;;;5021040;28;20172;-82
2021/05/29 14:09:46;;;;;;;6.40;3.50;;;;;;;;;;5028908;28;20065;-89
2021/05/29 14:12:12;;;;;;;5.15;3.08;;;;;;;;;;5017480;28;20709;-89
2021/05/29 14:14:39;;;;;;;6.38;3.63;;;;;;;;;;5024298;28;20088;-88
2021/05/29 14:17:06;;;;;;;4.32;2.97;;;;;;;;;;5027586;28;20082;-89
2021/05/29 14:19:32;;;;;;;3.92;3.03;;;;;;;;;;5027698;28;20037;-90
2021/05/29 14:21:58;;;;;;;4.50;3.05;;;;;;;;;;5031022;28;20041;-87
2021/05/29 14:24:25;;;;;;;7.03;3.33;;;;;;;;;;5014786;28;20061;-88
2021/05/29 14:26:51;;;;;;;6.28;3.10;;;;;;;;;;5034512;28;20768;-88
2021/05/29 14:29:18;;;;;;;6.50;3.55;;;;;;;;;;5028539;28;20145;-89
2021/05/29 14:31:45;;;;;;;6.53;3.05;;;;;;;;;;5030004;28;20073;-88
2021/05/29 14:34:11;;;;;;;5.78;3.00;;;;;;;;;;5022454;28;20046;-88
2021/05/29 14:36:37;;;;;;;4.90;2.85;;;;;;;;;;5022319;28;20060;-88
2021/05/29 14:39:05;;;;;;;5.82;2.92;;;;;;;;;;5030358;28;20076;-87
2021/05/29 14:41:31;;;;;;;4.75;3.25;;;;;;;;;;5032699;28;20041;-90
2021/05/29 14:43:58;;;;;;;4.50;2.92;;;;;;;;;;5033060;28;20061;-89
2021/05/29 14:46:24;;;;;;;4.10;2.95;;;;;;;;;;5030434;28;20095;-88
2021/05/29 14:48:52;;;;;;;5.95;3.30;;;;;;;;;;5036514;28;20056;-88
2021/05/29 14:51:23;;;;;;;7.30;2.70;;;;;;;;;;5030537;28;20050;-88
2021/05/29 14:53:49;;;;;;;;;;;;;;;;;;5044094;28;20072;-86
2021/05/29 14:56:17;;;;;;;5.57;2.95;;;;;;;;;;5040162;28;19958;-85
2021/05/29 14:58:43;;;;;;;4.78;2.88;;;;;;;;;;5044954;28;20068;-87
2021/05/29 15:01:10;;;;;;;4.47;2.80;;;;;;;;;;5033588;28;20560;-85
2021/05/29 15:03:39;;;;;;;4.32;2.80;;;;;;;;;;5041554;28;20057;-85
2021/05/29 15:06:06;;;;;;;4.63;2.65;;;;;;;;;;5032898;28;20999;-91
2021/05/29 15:08:33;;;;;;;5.38;3.00;;;;;;;;;;5033281;28;20041;-89